Time;durP1;ratioP1;P1;durP2;ratioP2;P2;SDS_P1;SDS_P2;PMS_P1;PMS_P2;Temp;Humidity;BMP_temperature;BMP_pressure;BME280_temperature;BME280_humidity;BME280_pressure;Samples;Min_cycle;Max_cycle;Signal;HPM_P1;HPM_P2
2023/10/09 00:01:27;;;;;;;7.73;3.30;;;12.80;96.30;;;;;;5098546;27;20621;-73
2023/10/09 00:03:55;;;;;;;5.77;3.00;;;12.80;96.00;;;;;;5097653;27;20982;-73
2023/10/09 00:06:31;;;;;;;9.23;4.00;;;12.90;96.00;;;;;;5099850;27;20625;-73
2023/10/09 00:08:58;;;;;;;5.63;1.93;;;12.90;96.30;;;;;;5100525;27;21163;-73
2023/10/09 00:11:29;;;;;;;4.10;3.47;;;12.90;96.20;;;;;;5098789;27;20628;-73
2023/10/09 00:13:58;;;;;;;3.27;2.60;;;12.90;96.10;;;;;;5099369;27;20619;-73
2023/10/09 00:16:34;;;;;;;10.20;3.13;;;12.90;96.20;;;;;;5101085;27;20621;-73
2023/10/09 00:19:13;;;;;;;5.10;2.90;;;12.90;96.20;;;;;;5099761;27;20741;-73
2023/10/09 00:21:41;;;;;;;7.73;2.40;;;12.90;95.80;;;;;;5097759;27;20625;-73
2023/10/09 00:24:13;;;;;;;5.83;3.27;;;12.80;96.20;;;;;;5098950;27;20613;-73
2023/10/09 00:26:45;;;;;;;5.50;2.50;;;12.70;96.20;;;;;;5096786;27;21061;-73
2023/10/09 00:29:21;;;;;;;6.07;3.00;;;12.70;96.10;;;;;;5097032;27;20667;-73
2023/10/09 00:31:54;;;;;;;9.30;2.73;;;12.70;96.20;;;;;;5099092;27;20944;-73
2023/10/09 00:34:22;;;;;;;13.20;3.33;;;12.60;96.10;;;;;;5098934;27;20624;-73
2023/10/09 00:36:52;;;;;;;5.20;2.77;;;12.70;96.20;;;;;;5096388;27;21184;-73
2023/10/09 00:39:33;;;;;;;10.63;2.93;;;12.70;96.30;;;;;;5096824;27;20613;-73
2023/10/09 00:42:01;;;;;;;7.13;3.00;;;12.70;95.80;;;;;;5096465;27;20640;-73
2023/10/09 00:44:38;;;;;;;6.50;3.43;;;12.70;95.90;;;;;;5100108;27;21236;-73
2023/10/09 00:47:20;;;;;;;3.53;3.07;;;12.70;95.80;;;;;;5097800;27;21224;-73
2023/10/09 00:49:49;;;;;;;6.93;3.13;;;12.70;95.90;;;;;;5099253;27;20635;-73
2023/10/09 00:52:26;;;;;;;9.37;3.27;;;12.60;96.10;;;;;;5095851;27;20624;-73
2023/10/09 00:54:56;;;;;;;9.43;4.00;;;12.50;96.10;;;;;;5097819;27;20690;-73
2023/10/09 00:57:31;;;;;;;5.23;2.70;;;12.50;96.30;;;;;;5095750;27;20628;-73
2023/10/09 01:00:00;;;;;;;6.80;3.03;;;12.50;96.30;;;;;;5097358;27;20628;-73
2023/10/09 01:02:36;;;;;;;7.20;2.93;;;12.50;96.20;;;;;;5098650;27;21149;-73
2023/10/09 01:05:19;;;;;;;4.30;2.43;;;12.50;96.60;;;;;;5098037;27;20632;-73
2023/10/09 01:07:47;;;;;;;11.80;3.80;;;12.50;96.30;;;;;;5099618;27;20666;-73
2023/10/09 01:10:16;;;;;;;5.60;3.47;;;12.60;96.20;;;;;;5096971;27;20620;-73
2023/10/09 01:12:46;;;;;;;6.50;2.87;;;12.60;96.20;;;;;;5098885;27;20633;-73
2023/10/09 01:15:35;;;;;;;13.20;3.70;;;12.50;96.40;;;;;;5097900;27;20722;-73
2023/10/09 01:18:07;;;;;;;3.57;2.70;;;12.40;96.30;;;;;;5097709;27;20726;-73
2023/10/09 01:20:41;;;;;;;4.73;2.73;;;12.40;96.10;;;;;;5098508;27;20628;-73
2023/10/09 01:23:11;;;;;;;8.83;2.90;;;12.50;96.00;;;;;;5096463;27;21086;-73
2023/10/09 01:25:44;;;;;;;4.97;2.47;;;12.60;95.90;;;;;;5095893;27;20621;-73
2023/10/09 01:28:15;;;;;;;5.97;3.43;;;12.60;95.70;;;;;;5096899;27;20674;-73
2023/10/09 01:30:43;;;;;;;4.63;1.90;;;12.70;95.70;;;;;;5095612;27;21036;-73
2023/10/09 01:33:21;;;;;;;8.90;3.23;;;12.80;95.70;;;;;;5095725;27;20638;-73
2023/10/09 01:35:50;;;;;;;3.07;2.33;;;12.80;95.50;;;;;;5096366;27;20637;-73
2023/10/09 01:38:18;;;;;;;6.57;3.30;;;12.80;95.50;;;;;;5098854;27;20631;-73
2023/10/09 01:40:51;;;;;;;8.90;4.17;;;12.80;95.50;;;;;;5096330;27;20624;-73
2023/10/09 01:43:19;;;;;;;7.83;3.20;;;13.00;95.50;;;;;;5097152;27;20625;-73
2023/10/09 01:45:46;;;;;;;15.53;4.83;;;12.90;95.40;;;;;;5095987;27;20628;-73
2023/10/09 01:48:14;;;;;;;5.87;3.40;;;12.90;95.50;;;;;;5096982;27;20665;-73
2023/10/09 01:50:42;;;;;;;5.80;3.03;;;12.90;95.60;;;;;;5098585;27;20634;-73
2023/10/09 01:53:17;;;;;;;6.73;2.53;;;13.00;95.50;;;;;;5096881;27;20658;-73
2023/10/09 01:55:46;;;;;;;7.90;3.20;;;13.00;94.80;;;;;;5094910;27;20631;-73
2023/10/09 01:58:24;;;;;;;9.40;2.77;;;13.00;95.10;;;;;;5096307;27;20620;-73
2023/10/09 02:00:54;;;;;;;10.70;3.27;;;13.00;95.30;;;;;;5095365;27;20686;-73
2023/10/09 02:03:25;;;;;;;9.13;2.57;;;13.00;96.00;;;;;;5096491;27;20656;-73
2023/10/09 02:05:53;;;;;;;9.13;3.57;;;13.00;95.50;;;;;;5095948;27;20743;-73
2023/10/09 02:08:21;;;;;;;4.30;2.67;;;13.10;95.50;;;;;;5095363;27;21208;-73
2023/10/09 02:10:50;;;;;;;12.70;2.90;;;13.10;94.90;;;;;;5095565;27;20725;-73
2023/10/09 02:13:17;;;;;;;7.60;2.63;;;13.10;95.00;;;;;;5097665;27;20621;-73
2023/10/09 02:15:58;;;;;;;5.30;2.80;;;13.10;95.20;;;;;;5095906;27;20953;-73
2023/10/09 02:18:39;;;;;;;4.20;2.70;;;13.20;95.10;;;;;;5096292;28;20685;-73
2023/10/09 02:21:14;;;;;;;8.10;3.17;;;13.30;95.10;;;;;;5094992;27;21382;-73
2023/10/09 02:23:46;;;;;;;4.70;2.70;;;13.20;95.10;;;;;;5096976;27;20733;-73
2023/10/09 02:26:19;;;;;;;11.37;3.57;;;13.20;95.20;;;;;;5094471;27;20731;-73
2023/10/09 02:28:58;;;;;;;8.87;3.20;;;13.20;95.10;;;;;;5096524;27;20734;-73
2023/10/09 02:31:29;;;;;;;6.30;3.10;;;13.20;95.10;;;;;;5095697;27;20729;-73
2023/10/09 02:33:57;;;;;;;5.30;2.30;;;13.20;95.20;;;;;;5097061;27;21037;-73
2023/10/09 02:36:28;;;;;;;9.47;2.83;;;13.20;95.00;;;;;;5097117;28;21203;-73
2023/10/09 02:38:56;;;;;;;6.60;3.57;;;13.20;95.10;;;;;;5096973;28;20616;-73
2023/10/09 02:41:30;;;;;;;2.90;2.60;;;13.20;95.50;;;;;;5094920;28;20627;-73
2023/10/09 02:44:10;;;;;;;10.73;3.37;;;13.10;95.40;;;;;;5095171;28;20626;-73
2023/10/09 02:46:40;;;;;;;4.70;2.00;;;13.10;95.50;;;;;;5095405;28;20648;-73
2023/10/09 02:49:09;;;;;;;4.90;3.50;;;13.20;95.60;;;;;;5097157;28;21138;-73
2023/10/09 02:51:41;;;;;;;5.60;2.37;;;13.20;95.40;;;;;;5095725;28;20737;-73
2023/10/09 02:54:26;;;;;;;12.60;3.90;;;13.20;95.50;;;;;;5094998;28;20661;-73
2023/10/09 02:57:05;;;;;;;7.53;3.10;;;13.20;95.50;;;;;;5093759;28;20621;-73
2023/10/09 02:59:34;;;;;;;7.57;2.63;;;13.20;95.60;;;;;;5100045;27;21168;-73
2023/10/09 03:02:02;;;;;;;7.53;3.60;;;13.20;95.40;;;;;;5101482;27;20635;-73
2023/10/09 03:04:30;;;;;;;4.83;2.70;;;13.10;95.80;;;;;;5102042;27;20624;-73
2023/10/09 03:06:58;;;;;;;6.30;3.33;;;13.10;95.90;;;;;;5098404;27;21048;-73
2023/10/09 03:09:28;;;;;;;7.73;3.53;;;13.10;95.60;;;;;;5098687;27;20779;-73
2023/10/09 03:12:02;;;;;;;4.33;2.67;;;13.20;95.40;;;;;;5101234;27;20720;-73
2023/10/09 03:14:30;;;;;;;6.00;2.73;;;13.30;95.40;;;;;;5100486;27;20632;-73
2023/10/09 03:16:57;;;;;;;5.80;2.20;;;13.20;95.30;;;;;;5099170;27;21183;-73
2023/10/09 03:19:26;;;;;;;4.50;3.07;;;13.20;95.40;;;;;;5098815;27;21116;-73
2023/10/09 03:21:53;;;;;;;7.53;2.70;;;13.30;94.60;;;;;;5098811;27;20661;-73
2023/10/09 03:24:22;;;;;;;5.03;2.43;;;13.40;94.50;;;;;;5098436;27;20727;-73
2023/10/09 03:26:50;;;;;;;7.63;3.40;;;13.50;94.10;;;;;;5099369;27;20625;-73
2023/10/09 03:29:19;;;;;;;10.17;2.90;;;13.50;94.00;;;;;;5098683;27;20678;-73
2023/10/09 03:31:46;;;;;;;8.67;2.93;;;13.50;94.50;;;;;;5097892;27;20630;-73
2023/10/09 03:34:14;;;;;;;4.93;2.43;;;13.50;93.70;;;;;;5098860;27;21503;-73
2023/10/09 03:36:42;;;;;;;8.47;2.80;;;13.50;93.50;;;;;;5099274;27;21212;-73
2023/10/09 03:39:24;;;;;;;6.23;3.53;;;13.50;93.70;;;;;;5100746;27;20624;-73
2023/10/09 03:41:51;;;;;;;4.80;2.20;;;13.60;94.00;;;;;;5097877;27;21187;-73
2023/10/09 03:44:19;;;;;;;6.27;2.90;;;13.60;93.70;;;;;;5100147;27;20718;-73
2023/10/09 03:46:47;;;;;;;6.33;4.30;;;13.60;93.40;;;;;;5098164;27;20624;-73
2023/10/09 03:49:15;;;;;;;7.47;2.53;;;13.70;93.30;;;;;;5098395;27;21016;-73
2023/10/09 03:51:45;;;;;;;3.50;2.23;;;13.70;93.20;;;;;;5098888;27;20632;-73
2023/10/09 03:54:13;;;;;;;7.20;3.03;;;13.70;93.80;;;;;;5098201;27;20746;-73
2023/10/09 03:56:39;;;;;;;4.43;2.70;;;13.70;94.10;;;;;;5097079;27;20732;-73
2023/10/09 03:59:10;;;;;;;3.43;2.40;;;13.60;94.50;;;;;;5098186;27;20620;-73
2023/10/09 04:01:39;;;;;;;4.87;3.07;;;13.70;94.30;;;;;;5099552;27;20652;-73
2023/10/09 04:04:10;;;;;;;4.87;2.23;;;13.70;94.30;;;;;;5098344;27;20701;-73
2023/10/09 04:06:37;;;;;;;8.10;2.80;;;13.60;94.30;;;;;;5103124;27;20632;-73
2023/10/09 04:09:26;;;;;;;3.20;2.40;;;13.50;94.50;;;;;;5098136;27;21030;-73
2023/10/09 04:12:13;;;;;;;4.67;2.30;;;13.50;94.50;;;;;;5100391;27;21123;-73
2023/10/09 04:14:48;;;;;;;13.30;2.80;;;13.50;94.40;;;;;;5099552;27;20974;-73
2023/10/09 04:22:39;;;;;;;7.10;2.80;;;13.40;94.90;;;;;;5098311;27;21560;-73
2023/10/09 04:25:07;;;;;;;8.23;2.53;;;13.40;95.00;;;;;;5099206;27;21076;-73
2023/10/09 04:27:37;;;;;;;2.73;1.90;;;13.40;95.20;;;;;;5098097;27;21172;-73
2023/10/09 04:30:07;;;;;;;12.17;2.93;;;13.30;94.90;;;;;;5098158;27;20641;-73
2023/10/09 04:32:35;;;;;;;12.00;3.50;;;13.20;94.90;;;;;;5098118;27;20638;-73
2023/10/09 04:37:44;;;;;;;4.03;3.13;;;13.10;95.00;;;;;;5098541;27;20727;-73
2023/10/09 04:40:12;;;;;;;6.63;2.20;;;13.20;95.00;;;;;;5099124;27;20690;-73
2023/10/09 04:42:38;;;;;;;4.10;2.80;;;13.10;95.20;;;;;;5097893;27;21098;-73
2023/10/09 04:48:06;;;;;;;5.87;2.60;;;13.10;95.20;;;;;;5097391;27;20649;-73
2023/10/09 04:51:20;;;;;;;4.70;2.57;;;13.10;95.40;;;;;;5096548;27;20627;-73
2023/10/09 04:53:50;;;;;;;5.90;2.90;;;13.10;95.40;;;;;;5096960;27;20643;-73
2023/10/09 04:56:17;;;;;;;4.90;3.10;;;13.10;95.90;;;;;;5096636;27;20628;-73
2023/10/09 04:58:45;;;;;;;3.90;3.43;;;13.00;95.40;;;;;;5098358;27;20615;-73
2023/10/09 05:01:21;;;;;;;11.90;3.60;;;13.10;95.40;;;;;;5097498;27;21214;-73
2023/10/09 05:03:56;;;;;;;4.00;2.70;;;13.10;95.70;;;;;;5096942;27;20642;-73
2023/10/09 05:09:15;;;;;;;4.20;2.67;;;13.10;95.20;;;;;;5082770;27;20675;-73
2023/10/09 05:11:53;;;;;;;6.63;2.30;;;13.10;94.70;;;;;;5097140;27;20625;-73
2023/10/09 05:14:26;;;;;;;3.17;2.70;;;13.20;94.90;;;;;;5096995;27;20643;-73
2023/10/09 05:17:01;;;;;;;6.30;2.40;;;13.10;94.90;;;;;;5094777;27;20748;-73
2023/10/09 05:19:42;;;;;;;3.70;2.50;;;13.20;95.30;;;;;;5096909;27;20660;-73
2023/10/09 05:22:29;;;;;;;6.20;2.27;;;13.10;95.00;;;;;;5095370;27;20624;-73
2023/10/09 05:24:57;;;;;;;4.20;3.07;;;13.20;95.10;;;;;;5094300;27;20708;-73
2023/10/09 05:27:45;;;;;;;9.87;3.57;;;13.20;95.30;;;;;;5094405;27;20656;-73
2023/10/09 05:30:25;;;;;;;6.00;3.43;;;13.10;95.40;;;;;;5096968;27;20648;-73
2023/10/09 05:32:55;;;;;;;14.00;3.90;;;13.00;95.60;;;;;;5098798;27;20616;-73
2023/10/09 05:35:39;;;;;;;2.73;2.47;;;13.10;95.60;;;;;;5097657;27;20664;-73
2023/10/09 05:38:14;;;;;;;7.93;3.17;;;13.10;95.60;;;;;;5095039;27;21159;-73
2023/10/09 05:40:43;;;;;;;6.43;3.27;;;13.10;95.60;;;;;;5099249;27;20656;-73
2023/10/09 05:44:21;;;;;;;7.10;4.43;;;13.00;95.60;;;;;;5096584;27;21154;-73
2023/10/09 05:46:09;;;;;;;9.33;3.17;;;13.00;95.90;;;;;;5095147;27;20627;-73
2023/10/09 05:54:23;;;;;;;8.33;3.13;;;13.00;95.70;;;;;;5094805;27;21168;-73
2023/10/09 06:05:40;;;;;;;7.23;3.43;;;13.10;95.90;;;;;;5095340;27;20617;-73
2023/10/09 06:08:06;;;;;;;3.90;2.60;;;13.10;96.30;;;;;;5095370;28;20652;-73
2023/10/09 06:10:39;;;;;;;10.67;3.00;;;13.20;95.80;;;;;;5096404;27;20660;-73
2023/10/09 06:13:07;;;;;;;3.10;2.80;;;13.20;95.60;;;;;;5096541;27;20629;-72
2023/10/09 06:16:09;;;;;;;5.53;3.23;;;13.20;95.70;;;;;;5094512;27;21149;-72
2023/10/09 06:18:41;;;;;;;6.07;3.37;;;13.30;96.00;;;;;;5096267;27;21673;-73
2023/10/09 06:21:09;;;;;;;3.83;2.73;;;13.30;95.90;;;;;;5096162;28;20712;-73
2023/10/09 06:26:26;;;;;;;8.10;2.93;;;13.30;96.10;;;;;;5096201;27;21233;-72
2023/10/09 06:29:13;;;;;;;8.90;3.27;;;13.40;96.20;;;;;;5096035;27;20713;-73
2023/10/09 06:32:05;;;;;;;8.23;3.57;;;13.40;95.90;;;;;;5098586;27;21208;-72
2023/10/09 06:34:35;;;;;;;10.53;2.70;;;13.50;96.40;;;;;;5098563;27;20653;-73
2023/10/09 06:37:07;;;;;;;9.30;2.97;;;13.40;95.70;;;;;;5095813;28;20634;-72
2023/10/09 06:41:01;;;;;;;3.13;2.60;;;13.60;96.40;;;;;;5097849;28;20629;-73
2023/10/09 06:42:51;;;;;;;2.40;2.20;;;13.60;95.50;;;;;;5097744;28;20628;-72
2023/10/09 06:45:19;;;;;;;3.97;2.37;;;13.70;95.40;;;;;;5096485;28;20730;-73
2023/10/09 06:47:55;;;;;;;3.17;2.40;;;13.80;94.40;;;;;;5094839;28;20649;-73
2023/10/09 06:50:25;;;;;;;5.57;3.20;;;13.90;94.10;;;;;;5095164;28;20661;-72
2023/10/09 06:53:19;;;;;;;5.07;2.20;;;13.90;94.20;;;;;;5095705;28;20743;-72
2023/10/09 06:55:50;;;;;;;4.80;2.40;;;14.00;93.80;;;;;;5095028;28;20631;-73
2023/10/09 06:58:22;;;;;;;3.60;2.40;;;14.00;93.60;;;;;;5095680;28;20665;-72
2023/10/09 07:01:19;;;;;;;5.90;2.30;;;14.10;93.80;;;;;;5096485;28;20727;-72
2023/10/09 07:03:52;;;;;;;9.00;2.03;;;14.10;94.00;;;;;;5094808;28;20698;-73
2023/10/09 07:06:48;;;;;;;6.50;2.87;;;14.20;94.70;;;;;;5096966;28;20629;-73
2023/10/09 07:09:19;;;;;;;5.60;2.60;;;14.20;94.50;;;;;;5096673;28;20680;-72
2023/10/09 07:11:59;;;;;;;4.30;2.57;;;14.20;94.40;;;;;;5096289;28;20635;-73
2023/10/09 07:15:01;;;;;;;4.10;2.17;;;14.30;94.30;;;;;;5094482;28;20632;-72
2023/10/09 07:17:21;;;;;;;5.80;2.77;;;14.30;94.90;;;;;;5093405;28;20638;-72
2023/10/09 07:20:08;;;;;;;4.23;3.17;;;14.30;95.00;;;;;;5095879;28;20791;-73
2023/10/09 07:22:39;;;;;;;3.80;3.50;;;14.40;94.30;;;;;;5096416;28;20636;-72
2023/10/09 07:25:15;;;;;;;6.17;3.80;;;14.50;94.30;;;;;;5095236;28;20644;-73
2023/10/09 07:27:44;;;;;;;4.67;2.60;;;14.60;94.70;;;;;;5095586;28;20627;-72
2023/10/09 07:32:54;;;;;;;4.40;2.67;;;14.60;94.70;;;;;;5088673;28;20677;-73
2023/10/09 07:35:46;;;;;;;4.33;2.20;;;14.80;94.00;;;;;;5089733;28;20769;-72
2023/10/09 07:38:09;;;;;;;6.23;2.30;;;14.80;94.20;;;;;;5088706;28;21162;-72
2023/10/09 07:40:54;;;;;;;7.33;3.63;;;14.90;94.20;;;;;;5089583;28;20630;-72
2023/10/09 07:43:27;;;;;;;10.20;5.37;;;15.00;93.90;;;;;;5090393;28;20630;-73
2023/10/09 07:48:48;;;;;;;7.23;3.30;;;15.10;92.60;;;;;;5093513;27;20647;-73
2023/10/09 07:51:16;;;;;;;5.37;2.17;;;15.20;93.00;;;;;;5093075;27;20670;-72
2023/10/09 07:53:44;;;;;;;8.47;3.57;;;15.20;92.90;;;;;;5093078;27;21216;-73
2023/10/09 07:56:13;;;;;;;3.80;2.90;;;15.30;93.60;;;;;;5092160;27;20628;-72
2023/10/09 07:58:47;;;;;;;4.83;2.77;;;15.30;93.80;;;;;;5093279;27;20625;-72
2023/10/09 08:01:22;;;;;;;8.83;2.33;;;15.40;93.50;;;;;;5093687;27;20690;-72
2023/10/09 08:04:10;;;;;;;5.33;2.70;;;15.40;94.10;;;;;;5092609;27;20634;-73
2023/10/09 08:06:39;;;;;;;5.03;2.07;;;15.50;93.50;;;;;;5092080;27;20624;-72
2023/10/09 08:09:38;;;;;;;10.07;2.70;;;15.50;93.00;;;;;;5092576;27;20666;-73
2023/10/09 08:12:13;;;;;;;8.63;3.93;;;15.60;92.40;;;;;;5093454;27;20626;-73
2023/10/09 08:14:45;;;;;;;6.63;2.43;;;15.70;91.80;;;;;;5091958;27;20637;-73
2023/10/09 08:17:15;;;;;;;7.67;2.83;;;15.80;92.70;;;;;;5092384;27;20633;-73
2023/10/09 08:19:53;;;;;;;5.10;2.67;;;15.90;92.70;;;;;;5092533;27;20630;-73
2023/10/09 08:25:08;;;;;;;5.57;3.20;;;16.10;92.60;;;;;;5091807;27;20623;-73
2023/10/09 08:27:47;;;;;;;12.00;3.73;;;16.20;93.60;;;;;;5091758;27;20626;-73
2023/10/09 08:30:29;;;;;;;4.63;2.43;;;16.30;92.90;;;;;;5092761;27;20655;-73
2023/10/09 08:33:02;;;;;;;3.97;1.73;;;16.40;92.40;;;;;;5092206;27;21187;-72
2023/10/09 08:35:29;;;;;;;4.10;2.33;;;16.50;93.20;;;;;;5092062;27;20639;-73
2023/10/09 08:37:58;;;;;;;5.97;2.10;;;16.60;93.30;;;;;;5091582;27;20650;-73
2023/10/09 08:40:33;;;;;;;2.63;2.20;;;16.70;92.90;;;;;;5091747;27;20625;-73
2023/10/09 08:43:09;;;;;;;7.50;2.57;;;16.80;92.60;;;;;;5091507;27;20813;-73
2023/10/09 08:45:40;;;;;;;5.20;2.13;;;16.90;93.00;;;;;;5091393;27;21400;-73
2023/10/09 08:48:08;;;;;;;6.53;2.50;;;16.90;93.60;;;;;;5092387;27;20620;-72
2023/10/09 08:50:37;;;;;;;4.87;2.60;;;17.00;92.80;;;;;;5092686;27;21038;-72
2023/10/09 08:53:04;;;;;;;5.20;2.57;;;17.10;91.70;;;;;;5091929;27;20992;-73
2023/10/09 08:55:31;;;;;;;9.70;2.67;;;17.20;92.50;;;;;;5090078;27;20635;-73
2023/10/09 08:57:58;;;;;;;5.17;3.40;;;17.20;91.60;;;;;;5092293;27;20730;-73
2023/10/09 09:00:25;;;;;;;8.70;4.10;;;17.20;91.50;;;;;;5091727;27;20657;-73
2023/10/09 09:02:53;;;;;;;11.53;4.10;;;17.20;90.90;;;;;;5093058;27;20654;-73
2023/10/09 09:05:21;;;;;;;6.03;3.60;;;17.30;91.10;;;;;;5090851;27;20620;-73
2023/10/09 09:07:48;;;;;;;7.20;4.47;;;17.40;90.60;;;;;;5091697;27;22202;-73
2023/10/09 09:10:21;;;;;;;3.10;1.97;;;17.50;91.10;;;;;;5093053;27;20661;-73
2023/10/09 09:12:53;;;;;;;11.20;3.40;;;17.50;90.70;;;;;;5091627;27;20987;-73
2023/10/09 09:15:21;;;;;;;7.23;2.20;;;17.60;90.80;;;;;;5091463;27;20645;-73
2023/10/09 09:17:49;;;;;;;4.07;3.00;;;17.70;90.90;;;;;;5091604;27;21636;-73
2023/10/09 09:20:27;;;;;;;4.90;2.57;;;17.80;90.20;;;;;;5091363;27;21696;-73
2023/10/09 09:22:56;;;;;;;6.10;4.40;;;17.90;90.50;;;;;;5091361;27;20638;-73
2023/10/09 09:25:24;;;;;;;4.93;2.43;;;18.00;90.50;;;;;;5091701;27;20631;-73
2023/10/09 09:27:54;;;;;;;3.53;2.10;;;18.00;90.20;;;;;;5091541;27;21194;-73
2023/10/09 09:30:26;;;;;;;7.87;2.93;;;18.10;89.60;;;;;;5090756;27;20667;-73
2023/10/09 09:35:35;;;;;;;5.43;2.50;;;18.30;88.60;;;;;;5090639;27;20628;-73
2023/10/09 09:38:04;;;;;;;9.60;2.73;;;18.40;89.10;;;;;;5091838;27;20620;-73
2023/10/09 09:40:41;;;;;;;6.40;2.10;;;18.40;90.30;;;;;;5091544;27;20731;-73
2023/10/09 09:43:17;;;;;;;6.60;2.73;;;18.40;88.90;;;;;;5091549;27;20678;-73
2023/10/09 09:45:48;;;;;;;7.03;1.90;;;18.50;88.30;;;;;;5090504;27;20980;-73
2023/10/09 09:48:16;;;;;;;10.47;2.83;;;18.60;88.00;;;;;;5091165;27;20628;-73
2023/10/09 09:50:47;;;;;;;7.83;3.27;;;18.70;88.30;;;;;;5088483;27;20665;-73
2023/10/09 09:53:17;;;;;;;3.20;2.23;;;18.70;89.50;;;;;;5090597;27;20624;-74
2023/10/09 09:55:51;;;;;;;3.13;2.00;;;18.70;89.60;;;;;;5090367;27;20632;-73
2023/10/09 09:58:23;;;;;;;6.00;2.23;;;18.80;88.20;;;;;;5090645;27;20708;-73
2023/10/09 10:00:55;;;;;;;12.90;2.87;;;18.90;89.20;;;;;;5090891;27;20735;-73
2023/10/09 10:03:28;;;;;;;5.10;2.50;;;19.00;88.40;;;;;;5090073;27;21150;-73
2023/10/09 10:05:59;;;;;;;6.80;2.43;;;19.10;88.40;;;;;;5087026;27;20727;-73
2023/10/09 10:08:32;;;;;;;16.53;3.37;;;19.10;89.00;;;;;;5089499;27;20782;-73
2023/10/09 10:11:05;;;;;;;6.53;2.50;;;19.20;89.00;;;;;;5090599;27;21627;-74
2023/10/09 10:14:04;;;;;;;6.50;3.57;;;19.30;90.30;;;;;;5090477;27;20629;-73
2023/10/09 10:16:35;;;;;;;11.40;2.77;;;19.40;90.70;;;;;;5089756;27;20719;-73
2023/10/09 10:19:21;;;;;;;9.83;3.30;;;19.50;89.50;;;;;;5089332;27;20802;-73
2023/10/09 10:21:53;;;;;;;3.77;2.50;;;19.60;88.00;;;;;;5087904;27;20616;-73
2023/10/09 10:24:57;;;;;;;8.90;3.27;;;19.70;89.30;;;;;;5088178;27;20624;-73
2023/10/09 10:27:33;;;;;;;5.43;2.03;;;19.80;88.20;;;;;;5089551;27;20621;-74
2023/10/09 10:30:31;;;;;;;15.43;4.03;;;19.90;87.90;;;;;;5089290;27;21292;-73
2023/10/09 10:33:09;;;;;;;9.23;2.57;;;20.00;86.50;;;;;;5088761;27;20650;-74
2023/10/09 10:35:46;;;;;;;9.83;3.10;;;20.10;86.70;;;;;;5086860;27;20631;-74
2023/10/09 10:38:36;;;;;;;5.90;2.67;;;20.30;86.30;;;;;;5087471;27;21373;-73
2023/10/09 10:41:16;;;;;;;9.23;2.90;;;20.30;87.10;;;;;;5090457;27;21534;-73
2023/10/09 10:43:54;;;;;;;5.43;2.37;;;20.50;88.50;;;;;;5090588;27;20641;-73
2023/10/09 10:46:30;;;;;;;3.67;2.83;;;20.60;90.20;;;;;;5090270;27;20635;-73
2023/10/09 10:49:00;;;;;;;7.90;4.20;;;20.60;86.70;;;;;;5090214;28;20627;-73
2023/10/09 10:51:35;;;;;;;5.23;2.93;;;20.50;82.70;;;;;;5090651;28;20666;-73
2023/10/09 10:56:45;;;;;;;4.30;2.90;;;20.60;81.50;;;;;;5089317;28;20632;-74
2023/10/09 10:59:13;;;;;;;8.33;3.13;;;20.50;79.70;;;;;;5090492;28;20773;-73
2023/10/09 11:01:58;;;;;;;7.93;2.90;;;20.50;89.10;;;;;;5090060;28;21278;-74
2023/10/09 11:04:27;;;;;;;6.40;3.10;;;20.40;83.40;;;;;;5089483;28;21415;-74
2023/10/09 11:07:00;;;;;;;13.37;3.33;;;20.40;84.30;;;;;;5090517;28;20635;-73
2023/10/09 11:09:36;;;;;;;9.00;2.97;;;20.40;80.60;;;;;;5089512;28;20760;-73
2023/10/09 11:12:21;;;;;;;14.93;4.07;;;20.50;78.80;;;;;;5090993;28;20624;-73
2023/10/09 11:15:05;;;;;;;8.70;3.30;;;20.50;81.90;;;;;;5088243;28;20631;-73
2023/10/09 11:17:35;;;;;;;7.93;1.90;;;20.60;82.30;;;;;;5087752;28;21156;-73
2023/10/09 11:20:22;;;;;;;5.73;2.53;;;20.70;80.30;;;;;;5092416;27;20629;-73
2023/10/09 11:23:14;;;;;;;16.70;2.93;;;20.80;83.10;;;;;;5093595;27;20636;-73
2023/10/09 11:25:50;;;;;;;5.37;2.60;;;21.00;80.00;;;;;;5092024;27;20617;-73
2023/10/09 11:28:29;;;;;;;7.50;2.87;;;21.20;77.90;;;;;;5094592;27;20991;-73
2023/10/09 11:31:06;;;;;;;15.17;3.50;;;21.20;79.50;;;;;;5092608;27;21139;-74
2023/10/09 11:33:44;;;;;;;7.30;3.10;;;21.20;75.90;;;;;;5093708;27;21242;-73
2023/10/09 11:36:11;;;;;;;8.07;2.50;;;21.30;75.00;;;;;;5093197;27;20671;-73
2023/10/09 11:38:38;;;;;;;11.97;3.10;;;21.30;77.80;;;;;;5092401;27;20647;-73
2023/10/09 11:41:19;;;;;;;5.20;2.80;;;21.30;76.20;;;;;;5093568;27;21140;-74
2023/10/09 11:43:52;;;;;;;10.53;2.97;;;21.20;79.00;;;;;;5093608;27;20764;-74
2023/10/09 11:49:32;;;;;;;8.40;2.97;;;20.90;81.90;;;;;;5092947;27;20624;-73
2023/10/09 11:54:56;;;;;;;9.93;2.77;;;20.80;83.60;;;;;;5094291;27;21215;-74
2023/10/09 11:57:33;;;;;;;6.80;1.70;;;20.70;80.40;;;;;;5093632;27;20770;-74
2023/10/09 12:00:08;;;;;;;2.97;2.07;;;20.60;80.20;;;;;;5094287;27;20745;-74
2023/10/09 12:02:43;;;;;;;5.03;2.30;;;20.50;83.30;;;;;;5092074;27;20780;-74
2023/10/09 12:05:16;;;;;;;9.97;3.33;;;20.50;82.20;;;;;;5093293;27;20653;-73
2023/10/09 12:07:44;;;;;;;7.27;3.20;;;20.50;81.20;;;;;;5092375;27;20620;-74
2023/10/09 12:10:13;;;;;;;5.03;2.57;;;20.40;77.50;;;;;;5093262;27;20670;-73
2023/10/09 12:12:46;;;;;;;2.77;1.80;;;20.40;80.20;;;;;;5093598;27;21533;-74
2023/10/09 12:15:17;;;;;;;4.23;2.40;;;20.50;77.20;;;;;;5093266;27;20730;-73
2023/10/09 12:17:46;;;;;;;14.30;2.57;;;20.50;80.10;;;;;;5092840;27;20659;-73
2023/10/09 12:20:29;;;;;;;4.43;2.70;;;20.50;69.70;;;;;;5093791;27;20622;-74
2023/10/09 12:22:58;;;;;;;9.10;3.90;;;20.70;79.70;;;;;;5093641;27;20622;-74
2023/10/09 12:25:25;;;;;;;6.20;2.73;;;20.90;64.20;;;;;;5093192;27;20674;-74
2023/10/09 12:27:57;;;;;;;6.50;2.83;;;21.10;60.90;;;;;;5091999;27;21292;-74
2023/10/09 12:30:27;;;;;;;3.87;2.00;;;21.30;69.70;;;;;;5091808;27;20794;-74
2023/10/09 12:32:54;;;;;;;8.70;3.50;;;21.40;67.60;;;;;;5091820;27;20632;-73
2023/10/09 12:35:24;;;;;;;5.00;3.00;;;21.50;64.40;;;;;;5092621;27;20728;-73
2023/10/09 12:37:52;;;;;;;4.20;2.73;;;21.70;60.00;;;;;;5091097;27;20719;-74
2023/10/09 12:40:24;;;;;;;7.47;3.23;;;21.90;59.10;;;;;;5092700;27;20719;-74
2023/10/09 12:42:55;;;;;;;6.80;2.57;;;22.30;61.70;;;;;;5091983;27;20647;-73
2023/10/09 12:45:26;;;;;;;7.17;3.50;;;22.50;57.80;;;;;;5092622;27;20754;-74
2023/10/09 12:47:54;;;;;;;7.17;2.53;;;22.70;61.50;;;;;;5092517;27;21020;-74
2023/10/09 12:50:27;;;;;;;14.67;3.60;;;22.80;56.40;;;;;;5091329;27;21026;-72
2023/10/09 12:52:56;;;;;;;6.13;3.20;;;22.80;55.80;;;;;;5092413;27;20658;-72
2023/10/09 12:55:31;;;;;;;4.30;3.10;;;22.80;59.20;;;;;;5092982;27;20631;-72
2023/10/09 12:58:03;;;;;;;7.93;3.67;;;22.70;58.00;;;;;;5092234;27;20989;-73
2023/10/09 13:00:32;;;;;;;4.90;4.30;;;22.80;55.50;;;;;;5092418;27;20670;-73
2023/10/09 13:03:01;;;;;;;5.67;2.97;;;22.70;56.00;;;;;;5091468;27;20632;-72
2023/10/09 13:05:28;;;;;;;4.17;2.10;;;22.70;56.60;;;;;;5091934;27;21744;-72
2023/10/09 13:07:56;;;;;;;5.20;2.70;;;22.60;56.30;;;;;;5092022;27;21781;-72
2023/10/09 13:10:25;;;;;;;3.40;2.30;;;22.60;56.50;;;;;;5091938;27;20663;-73
2023/10/09 13:12:56;;;;;;;3.63;2.47;;;22.50;58.10;;;;;;5091987;27;20624;-73
2023/10/09 13:15:24;;;;;;;12.70;2.70;;;22.40;65.10;;;;;;5091842;27;20639;-73
2023/10/09 13:17:53;;;;;;;5.90;2.67;;;22.40;62.80;;;;;;5091366;27;20631;-72
2023/10/09 13:20:19;;;;;;;8.13;2.40;;;22.50;57.20;;;;;;5091777;27;20632;-73
2023/10/09 13:22:47;;;;;;;6.63;2.93;;;22.50;62.50;;;;;;5091172;27;20617;-73
2023/10/09 13:25:16;;;;;;;13.57;3.43;;;22.50;61.20;;;;;;5091799;27;20770;-73
2023/10/09 13:27:50;;;;;;;6.60;2.70;;;22.50;56.90;;;;;;5090435;27;20690;-73
2023/10/09 13:30:21;;;;;;;9.23;2.90;;;22.40;55.60;;;;;;5091014;27;20664;-73
2023/10/09 13:32:50;;;;;;;6.93;3.13;;;22.30;59.30;;;;;;5092231;27;21094;-73
2023/10/09 13:35:19;;;;;;;9.07;3.33;;;22.10;58.30;;;;;;5093343;27;20974;-73
2023/10/09 13:37:53;;;;;;;6.77;3.27;;;22.10;56.20;;;;;;5091510;27;21172;-72
2023/10/09 13:40:26;;;;;;;4.93;3.03;;;22.10;57.60;;;;;;5090995;27;21111;-73
2023/10/09 13:42:58;;;;;;;4.50;2.83;;;22.10;53.70;;;;;;5090141;27;20632;-72
2023/10/09 13:45:27;;;;;;;4.30;3.00;;;22.30;52.80;;;;;;5092074;27;20879;-73
2023/10/09 13:47:56;;;;;;;5.90;3.03;;;22.20;52.00;;;;;;5089583;27;20629;-73
2023/10/09 13:50:28;;;;;;;5.07;3.27;;;22.30;51.50;;;;;;5091329;27;20761;-73
2023/10/09 13:52:56;;;;;;;5.40;3.57;;;22.30;53.10;;;;;;5090480;27;20724;-74
2023/10/09 13:55:29;;;;;;;8.63;2.90;;;22.50;50.00;;;;;;5090356;27;20636;-74
2023/10/09 13:57:57;;;;;;;5.70;2.63;;;22.60;50.60;;;;;;5090262;27;20625;-74
2023/10/09 14:00:33;;;;;;;8.63;3.17;;;22.70;49.80;;;;;;5091743;27;21092;-74
2023/10/09 14:03:11;;;;;;;6.37;3.10;;;22.80;51.90;;;;;;5090269;27;20624;-73
2023/10/09 14:05:44;;;;;;;4.80;2.90;;;22.80;50.00;;;;;;5089901;27;20685;-74
2023/10/09 14:08:15;;;;;;;2.80;2.20;;;22.80;56.70;;;;;;5090549;27;20696;-74